Raisin, California
Current Conditions -  °F | °C
As of 4:53 AM on Friday 31 Oct 2014 (Local Time) from KFAT Reporting Station
Broken Clouds Broken Clouds  
Wind Chill: 16°   Ceiling: 15000
Heat Index: 16°   Visibility: 10mi
Dew Point:   Wind: 6mph
Humidity: 53%   Direction: 130°SE
Pressure: 29.89"   Gusts: NA
Location:  36.6°N, 119.9°W
Report Text: KFAT 311153Z 13005KT 10SM BKN150 BKN200 16/06 A2989 RMK AO2 SLP119 T01560061 10178 20150 58002
Loading
Personal Weather Stations






























Interactive Weather Map
Tropical Storm Tracking
New forecast layout! Learn more

10-Day Weather Forecast

Advertisements
Track Severe Weather on mobile